Time;durP1;ratioP1;P1;durP2;ratioP2;P2;SDS_P1;SDS_P2;PMS_P1;PMS_P2;Temp;Humidity;BMP_temperature;BMP_pressure;BME280_temperature;BME280_humidity;BME280_pressure;Samples;Min_cycle;Max_cycle;Signal;HPM_P1;HPM_P2
2022/08/04 00:01:18;;;;;;;6.67;2.27;;;25.30;88.10;;;;;;5050693;28;20025;-70
2022/08/04 00:03:57;;;;;;;6.43;2.13;;;25.30;87.90;;;;;;5050776;28;20132;-70
2022/08/04 00:06:36;;;;;;;6.05;1.65;;;25.30;87.80;;;;;;5050599;28;20028;-70
2022/08/04 00:09:25;;;;;;;4.65;1.88;;;25.30;87.80;;;;;;5050311;28;20550;-70
2022/08/04 00:11:56;;;;;;;5.70;2.10;;;25.30;87.80;;;;;;5029228;28;20032;-70
2022/08/04 00:14:23;;;;;;;7.93;1.98;;;25.30;87.80;;;;;;5050591;28;20436;-70
2022/08/04 00:16:53;;;;;;;5.90;2.13;;;25.30;87.80;;;;;;5032569;28;20124;-70
2022/08/04 00:19:46;;;;;;;6.55;1.73;;;25.30;87.80;;;;;;5050369;28;20389;-70
2022/08/04 00:22:14;;;;;;;5.45;1.85;;;25.20;87.70;;;;;;5045967;28;20109;-70
2022/08/04 00:24:40;;;;;;;5.95;2.03;;;25.20;87.70;;;;;;5050521;28;20036;-70
2022/08/04 00:27:07;;;;;;;4.38;2.05;;;25.20;87.70;;;;;;5050619;28;20099;-70
2022/08/04 00:29:34;;;;;;;8.40;1.70;;;25.20;87.70;;;;;;5050300;28;20075;-70
2022/08/04 00:32:01;;;;;;;5.05;2.20;;;25.20;87.60;;;;;;5050908;28;20037;-70
2022/08/04 00:34:30;;;;;;;4.60;1.85;;;25.20;87.60;;;;;;5073403;22;20135;-71
2022/08/04 00:36:57;;;;;;;6.18;1.77;;;25.20;87.60;;;;;;5073988;28;20021;-70
2022/08/04 00:39:23;;;;;;;4.78;1.52;;;25.20;87.70;;;;;;5073835;28;20599;-71
2022/08/04 00:42:16;;;;;;;5.57;1.70;;;25.20;87.60;;;;;;5074023;28;20017;-71
2022/08/04 00:45:02;;;;;;;4.35;1.63;;;25.20;87.50;;;;;;5073827;28;20079;-70
2022/08/04 00:47:54;;;;;;;6.53;1.70;;;25.20;87.50;;;;;;5073957;28;20511;-71
2022/08/04 00:50:49;;;;;;;7.45;1.88;;;25.10;87.40;;;;;;5073511;28;20032;-70
2022/08/04 00:53:49;;;;;;;5.95;1.67;;;25.20;87.40;;;;;;5073916;28;20389;-70
2022/08/04 00:56:32;;;;;;;5.18;1.63;;;25.10;87.30;;;;;;5073701;28;20027;-71
2022/08/04 00:59:07;;;;;;;5.78;1.63;;;25.20;87.40;;;;;;5073440;28;20086;-71
2022/08/04 01:02:03;;;;;;;5.13;1.83;;;25.10;87.40;;;;;;5073488;28;20024;-71
2022/08/04 01:04:46;;;;;;;4.55;1.58;;;25.10;87.20;;;;;;5073665;28;20078;-70
2022/08/04 01:07:37;;;;;;;5.00;1.83;;;25.10;87.20;;;;;;5073357;28;20067;-70
2022/08/04 01:10:09;;;;;;;5.38;1.48;;;25.10;87.10;;;;;;5073380;28;20029;-71
2022/08/04 01:12:47;;;;;;;5.20;1.45;;;25.10;87.10;;;;;;5073614;28;20033;-70
2022/08/04 01:15:22;;;;;;;5.53;1.88;;;25.10;87.10;;;;;;5073398;28;20020;-71
2022/08/04 01:18:04;;;;;;;7.05;1.38;;;25.10;87.10;;;;;;5073195;28;20063;-70
2022/08/04 01:20:48;;;;;;;7.28;1.60;;;25.10;87.10;;;;;;5073116;28;20032;-71
2022/08/04 01:23:45;;;;;;;4.40;1.48;;;25.10;87.10;;;;;;5073531;28;20031;-70
2022/08/04 01:26:49;;;;;;;5.65;1.77;;;25.10;87.20;;;;;;5058671;28;20036;-70
2022/08/04 01:29:18;;;;;;;7.43;1.38;;;25.10;87.10;;;;;;5072872;28;20123;-71
2022/08/04 01:32:02;;;;;;;5.07;1.60;;;25.10;87.20;;;;;;5073120;28;20101;-70
2022/08/04 01:34:40;;;;;;;5.78;1.52;;;25.00;87.10;;;;;;5072921;28;20116;-71
2022/08/04 01:37:36;;;;;;;5.45;1.98;;;25.10;87.20;;;;;;5073048;28;20029;-70
2022/08/04 01:40:07;;;;;;;5.82;1.60;;;25.00;87.10;;;;;;5072760;28;20047;-70
2022/08/04 01:42:35;;;;;;;5.32;1.70;;;25.00;87.10;;;;;;5072461;28;20526;-71
2022/08/04 01:45:07;;;;;;;7.78;1.80;;;25.00;87.20;;;;;;5072748;28;20032;-70
2022/08/04 01:47:39;;;;;;;7.18;1.65;;;25.00;87.10;;;;;;5072649;28;20044;-71
2022/08/04 01:50:08;;;;;;;8.50;1.50;;;25.00;87.20;;;;;;5072541;28;20089;-70
2022/08/04 01:52:35;;;;;;;;;;;25.00;87.30;;;;;;5073201;28;20208;-71
2022/08/04 01:55:05;;;;;;;5.75;1.65;;;25.00;87.20;;;;;;5072660;28;19927;-71
2022/08/04 01:57:33;;;;;;;4.60;1.30;;;25.00;87.30;;;;;;5072281;28;20033;-70
2022/08/04 01:59:59;;;;;;;;;;;25.00;87.40;;;;;;5072686;28;20059;-71
2022/08/04 02:02:25;;;;;;;7.35;1.60;;;25.00;87.30;;;;;;5072501;28;19908;-71
2022/08/04 02:04:51;;;;;;;7.10;1.75;;;25.00;87.40;;;;;;5072786;28;20031;-70
2022/08/04 02:07:32;;;;;;;4.78;1.75;;;25.00;87.40;;;;;;5072347;28;20025;-71
2022/08/04 02:10:14;;;;;;;3.72;1.70;;;25.00;87.30;;;;;;5072081;28;20035;-70
2022/08/04 02:13:18;;;;;;;7.68;1.60;;;25.00;87.40;;;;;;5072279;28;20032;-70
2022/08/04 02:16:03;;;;;;;6.15;1.73;;;25.00;87.40;;;;;;5057909;28;20054;-70
2022/08/04 02:18:55;;;;;;;7.53;1.65;;;25.00;87.40;;;;;;5072041;28;20036;-70
2022/08/04 02:21:25;;;;;;;5.13;1.50;;;25.00;87.40;;;;;;5071989;28;20089;-71
2022/08/04 02:24:04;;;;;;;3.80;1.40;;;25.00;87.50;;;;;;5072013;28;20078;-70
2022/08/04 02:26:32;;;;;;;5.65;1.50;;;25.00;87.50;;;;;;5071867;28;20027;-70
2022/08/04 02:29:07;;;;;;;4.85;1.80;;;25.00;87.70;;;;;;5071710;28;20021;-70
2022/08/04 02:31:53;;;;;;;4.47;1.52;;;25.00;87.80;;;;;;5054344;28;20096;-70
2022/08/04 02:34:27;;;;;;;5.90;1.80;;;24.90;87.80;;;;;;5053745;28;20369;-71
2022/08/04 02:36:54;;;;;;;5.95;1.75;;;24.90;87.90;;;;;;5071628;28;20032;-70
2022/08/04 02:39:21;;;;;;;5.95;1.83;;;24.90;88.00;;;;;;5071477;28;20031;-71
2022/08/04 02:41:48;;;;;;;7.30;2.35;;;24.90;88.10;;;;;;5071877;28;20107;-70
2022/08/04 02:44:25;;;;;;;9.95;2.38;;;24.90;88.20;;;;;;5071730;28;20048;-71
2022/08/04 02:46:53;;;;;;;5.18;2.00;;;24.90;88.30;;;;;;5071546;28;20545;-71
2022/08/04 02:49:21;;;;;;;9.82;2.10;;;24.80;88.30;;;;;;5071440;28;20070;-71
2022/08/04 02:51:52;;;;;;;4.75;1.98;;;24.80;88.50;;;;;;5071339;28;20401;-71
2022/08/04 02:54:24;;;;;;;9.43;2.33;;;24.80;88.70;;;;;;5071005;28;20093;-71
2022/08/04 02:56:54;;;;;;;5.03;1.80;;;24.80;88.90;;;;;;5071094;28;20048;-71
2022/08/04 02:59:25;;;;;;;6.82;1.70;;;24.80;88.90;;;;;;5071107;28;20189;-70
2022/08/04 03:01:55;;;;;;;7.90;2.00;;;24.80;89.00;;;;;;5071339;28;20016;-71
2022/08/04 03:04:44;;;;;;;7.63;1.95;;;24.70;89.00;;;;;;5071113;28;20035;-71
2022/08/04 03:07:26;;;;;;;5.50;2.40;;;24.70;89.00;;;;;;5058810;28;20033;-70
2022/08/04 03:10:21;;;;;;;7.10;1.95;;;24.80;89.70;;;;;;5071058;28;20523;-71
2022/08/04 03:12:57;;;;;;;6.53;2.03;;;24.70;89.20;;;;;;5053238;28;20056;-70
2022/08/04 03:15:26;;;;;;;6.57;1.92;;;24.70;89.20;;;;;;5071057;28;20032;-70
2022/08/04 03:18:36;;;;;;;5.38;1.70;;;24.70;89.30;;;;;;5071090;28;20450;-71
2022/08/04 03:21:08;;;;;;;4.38;1.65;;;24.70;89.60;;;;;;4989150;28;20078;-71
2022/08/04 03:24:25;;;;;;;8.82;2.10;;;24.60;89.70;;;;;;4989404;28;20380;-71
2022/08/04 03:27:22;;;;;;;5.82;1.80;;;24.60;90.30;;;;;;5020601;28;20040;-71
2022/08/04 03:30:06;;;;;;;4.65;2.20;;;24.50;90.10;;;;;;5070689;28;20032;-70
2022/08/04 03:32:51;;;;;;;7.38;2.13;;;24.50;90.20;;;;;;5071126;28;20416;-70
2022/08/04 03:35:38;;;;;;;4.55;1.58;;;24.40;90.40;;;;;;5052860;28;20032;-70
2022/08/04 03:38:10;;;;;;;5.70;2.00;;;24.40;90.50;;;;;;5071085;28;20044;-71
2022/08/04 03:41:04;;;;;;;6.80;2.05;;;24.30;90.60;;;;;;5070555;28;20021;-70
2022/08/04 03:43:55;;;;;;;8.68;2.42;;;24.20;90.80;;;;;;5070773;28;20028;-71
2022/08/04 03:46:40;;;;;;;5.50;2.10;;;24.20;91.00;;;;;;5052819;28;20024;-71
2022/08/04 03:49:37;;;;;;;7.47;2.35;;;24.10;91.10;;;;;;5070696;28;20026;-71
2022/08/04 03:56:09;;;;;;;5.90;1.85;;;24.00;91.30;;;;;;4989183;28;20442;-71
2022/08/04 03:58:56;;;;;;;5.28;2.08;;;24.00;91.60;;;;;;5070489;28;20408;-71
2022/08/04 04:01:34;;;;;;;6.88;2.22;;;23.90;91.70;;;;;;5070711;28;20021;-70
2022/08/04 04:04:03;;;;;;;8.73;2.72;;;23.90;91.90;;;;;;5070685;28;20671;-71
2022/08/04 04:07:06;;;;;;;8.35;2.67;;;23.80;92.00;;;;;;5072086;28;20057;-70
2022/08/04 04:09:56;;;;;;;7.65;2.13;;;23.80;92.10;;;;;;5074666;28;20074;-71
2022/08/04 04:12:28;;;;;;;7.22;2.38;;;23.70;92.30;;;;;;5074867;28;20392;-70
2022/08/04 04:15:33;;;;;;;6.30;1.85;;;23.70;92.40;;;;;;5074467;28;20028;-71
2022/08/04 04:18:14;;;;;;;7.43;2.25;;;23.60;92.60;;;;;;5074459;28;20086;-71
2022/08/04 04:21:18;;;;;;;6.00;1.80;;;23.60;92.80;;;;;;5074236;28;20020;-70
2022/08/04 04:23:47;;;;;;;6.03;2.58;;;23.60;92.90;;;;;;5074962;28;20028;-70
2022/08/04 04:26:58;;;;;;;8.02;2.03;;;23.60;93.00;;;;;;5074398;28;20437;-70
2022/08/04 04:29:39;;;;;;;9.73;2.50;;;23.50;93.10;;;;;;4992395;28;20045;-71
2022/08/04 04:32:30;;;;;;;9.25;2.00;;;23.40;93.20;;;;;;4992669;28;20045;-70
2022/08/04 04:35:21;;;;;;;6.97;2.40;;;23.40;93.30;;;;;;5043317;28;20098;-70
2022/08/04 04:38:13;;;;;;;5.38;1.85;;;23.40;93.50;;;;;;5074052;28;20032;-70
2022/08/04 04:40:47;;;;;;;7.88;2.22;;;23.40;93.60;;;;;;5073985;28;20158;-70
2022/08/04 04:43:22;;;;;;;8.15;2.40;;;23.40;93.70;;;;;;5074088;28;20024;-70
2022/08/04 04:46:03;;;;;;;6.47;1.92;;;23.40;93.80;;;;;;5074241;28;20024;-70
2022/08/04 04:49:06;;;;;;;5.57;2.30;;;23.40;93.90;;;;;;5073838;28;20016;-71
2022/08/04 04:51:50;;;;;;;5.55;2.20;;;23.40;94.00;;;;;;5073925;28;20036;-70
2022/08/04 04:54:34;;;;;;;7.15;2.30;;;23.30;94.00;;;;;;5074153;28;20036;-71
2022/08/04 04:57:14;;;;;;;8.57;2.53;;;23.30;94.20;;;;;;5074052;28;20457;-72
2022/08/04 05:00:04;;;;;;;7.00;2.95;;;23.40;94.30;;;;;;5058664;28;20082;-71
2022/08/04 05:02:51;;;;;;;6.63;2.58;;;23.40;94.40;;;;;;5073663;28;20028;-70
2022/08/04 05:05:32;;;;;;;7.35;2.25;;;23.40;94.40;;;;;;5073765;28;20029;-71
2022/08/04 05:08:34;;;;;;;8.30;2.67;;;23.30;94.60;;;;;;5055644;28;20044;-71
2022/08/04 05:11:28;;;;;;;5.55;2.35;;;23.30;94.60;;;;;;5073707;28;20120;-71
2022/08/04 05:14:34;;;;;;;6.65;2.53;;;23.30;94.50;;;;;;5055677;28;20062;-71
2022/08/04 05:17:23;;;;;;;7.05;2.28;;;23.30;94.40;;;;;;5072512;28;20044;-71
2022/08/04 05:20:33;;;;;;;6.53;2.10;;;23.30;94.50;;;;;;5072757;28;20070;-71
2022/08/04 05:23:14;;;;;;;9.15;2.30;;;23.40;94.50;;;;;;4991660;28;20031;-70
2022/08/04 05:25:52;;;;;;;8.15;2.28;;;23.40;94.60;;;;;;5064706;28;20389;-70
2022/08/04 05:28:23;;;;;;;7.75;2.17;;;23.40;94.60;;;;;;5073247;28;20029;-70
2022/08/04 05:30:54;;;;;;;6.35;2.20;;;23.50;94.60;;;;;;5072822;28;20031;-71
2022/08/04 05:33:27;;;;;;;10.30;2.60;;;23.50;94.50;;;;;;5055169;28;20560;-70
2022/08/04 05:35:58;;;;;;;7.50;2.45;;;23.60;94.50;;;;;;5072889;28;20058;-71
2022/08/04 05:38:33;;;;;;;8.60;2.60;;;23.60;94.20;;;;;;5072916;28;20072;-70
2022/08/04 05:41:00;;;;;;;6.78;2.17;;;23.70;94.20;;;;;;5072920;28;20074;-71
2022/08/04 05:43:26;;;;;;;10.63;2.70;;;23.70;94.40;;;;;;5055067;28;20032;-70
2022/08/04 05:45:56;;;;;;;6.00;2.55;;;23.70;94.40;;;;;;5072861;28;20273;-70
2022/08/04 05:48:24;;;;;;;6.90;2.30;;;23.70;94.30;;;;;;5072875;28;20099;-71
2022/08/04 05:50:51;;;;;;;6.38;2.22;;;23.80;94.10;;;;;;5072487;28;20052;-70
2022/08/04 05:53:19;;;;;;;13.05;3.90;;;23.80;94.00;;;;;;5072832;28;20104;-70
2022/08/04 05:55:47;;;;;;;9.23;3.33;;;23.80;93.90;;;;;;5072765;28;20030;-70
2022/08/04 05:58:15;;;;;;;9.90;3.90;;;23.90;93.60;;;;;;5072989;28;20108;-71
2022/08/04 06:00:42;;;;;;;9.07;3.78;;;23.90;93.30;;;;;;5072292;28;20029;-70
2022/08/04 06:03:10;;;;;;;8.82;4.10;;;23.90;93.10;;;;;;5072860;28;20546;-69
2022/08/04 06:05:37;;;;;;;6.75;3.50;;;23.90;93.00;;;;;;5072294;28;20066;-71
2022/08/04 06:08:03;;;;;;;10.23;3.10;;;24.00;93.00;;;;;;5072381;28;20028;-71
2022/08/04 06:10:33;;;;;;;11.13;3.35;;;24.00;92.90;;;;;;5072109;28;20103;-70
2022/08/04 06:13:04;;;;;;;10.55;3.65;;;24.00;92.80;;;;;;5072394;28;20093;-71
2022/08/04 06:15:34;;;;;;;7.55;2.83;;;24.10;92.70;;;;;;5054566;28;20061;-70
2022/08/04 06:18:03;;;;;;;7.07;2.80;;;24.10;92.40;;;;;;5072084;28;20032;-71
2022/08/04 06:20:37;;;;;;;8.52;2.92;;;24.10;92.40;;;;;;5071994;28;20120;-70
2022/08/04 06:23:13;;;;;;;10.23;3.35;;;24.10;92.40;;;;;;5072247;28;20087;-70
2022/08/04 06:25:47;;;;;;;4.72;2.60;;;24.20;92.30;;;;;;5072181;28;20186;-70
2022/08/04 06:28:15;;;;;;;6.45;2.80;;;24.20;92.20;;;;;;5054149;28;20546;-70
2022/08/04 06:30:46;;;;;;;12.95;4.22;;;24.30;92.20;;;;;;5071650;28;20071;-70
2022/08/04 06:33:36;;;;;;;6.05;3.47;;;24.30;92.20;;;;;;5072045;28;20024;-71
2022/08/04 06:36:02;;;;;;;8.27;3.40;;;24.30;92.20;;;;;;5086310;22;20064;-70
2022/08/04 06:38:30;;;;;;;7.03;3.10;;;24.30;92.10;;;;;;5072236;28;20067;-71
2022/08/04 06:40:58;;;;;;;7.85;3.47;;;24.40;92.10;;;;;;5050912;28;20382;-72
2022/08/04 06:43:26;;;;;;;10.53;3.57;;;24.40;92.10;;;;;;5034323;28;20071;-71
2022/08/04 06:45:54;;;;;;;8.63;3.67;;;24.40;92.00;;;;;;5051799;28;20036;-71
2022/08/04 06:48:21;;;;;;;7.15;3.67;;;24.50;91.90;;;;;;5051946;28;20025;-71
2022/08/04 06:50:48;;;;;;;6.65;3.67;;;24.50;91.70;;;;;;5051487;28;20025;-71
2022/08/04 06:53:15;;;;;;;5.63;3.28;;;24.60;91.60;;;;;;5033921;28;20112;-71
2022/08/04 06:55:43;;;;;;;6.88;3.35;;;24.70;91.80;;;;;;5051529;28;20029;-71
2022/08/04 06:58:10;;;;;;;8.57;3.78;;;24.70;91.40;;;;;;5051686;28;20528;-72
2022/08/04 07:00:39;;;;;;;5.57;3.00;;;24.80;91.10;;;;;;5051474;28;20040;-70
2022/08/04 07:03:06;;;;;;;5.22;2.70;;;24.80;91.00;;;;;;5051517;28;20482;-71
2022/08/04 07:05:33;;;;;;;5.47;3.17;;;24.90;91.00;;;;;;5051654;28;20453;-71
2022/08/04 07:07:59;;;;;;;5.78;2.75;;;24.90;90.90;;;;;;5033560;28;20025;-72
2022/08/04 07:10:29;;;;;;;5.75;3.20;;;24.90;90.80;;;;;;5051354;28;20381;-72
2022/08/04 07:12:57;;;;;;;6.50;2.97;;;25.00;90.70;;;;;;5051436;28;20036;-72
2022/08/04 07:15:24;;;;;;;5.78;2.88;;;25.00;90.60;;;;;;5051255;28;20035;-71
2022/08/04 07:17:51;;;;;;;4.18;2.75;;;25.00;90.50;;;;;;5051332;28;20555;-72
2022/08/04 07:20:18;;;;;;;4.30;2.80;;;25.10;90.60;;;;;;5033041;28;20036;-72
2022/08/04 07:22:47;;;;;;;4.65;3.20;;;25.10;90.70;;;;;;5051003;28;20029;-72
2022/08/04 07:25:15;;;;;;;4.70;2.88;;;25.10;90.70;;;;;;5033695;28;20087;-72
2022/08/04 07:27:42;;;;;;;5.35;3.10;;;25.10;90.60;;;;;;5051258;28;20033;-72
2022/08/04 07:30:09;;;;;;;7.00;3.40;;;25.20;90.60;;;;;;5051199;28;20424;-72
2022/08/04 07:32:36;;;;;;;5.07;3.08;;;25.20;90.50;;;;;;5050981;28;20029;-71
2022/08/04 07:35:06;;;;;;;4.63;2.90;;;25.30;90.50;;;;;;5033075;28;20055;-72
2022/08/04 07:37:32;;;;;;;4.63;3.08;;;25.30;90.30;;;;;;5050990;28;20294;-72
2022/08/04 07:39:59;;;;;;;5.70;3.00;;;25.30;90.20;;;;;;5050649;28;20025;-72
2022/08/04 07:42:25;;;;;;;7.28;2.88;;;25.30;89.90;;;;;;5050643;28;20485;-72
2022/08/04 07:44:51;;;;;;;5.65;2.88;;;25.40;89.30;;;;;;5050992;28;20552;-72
2022/08/04 07:47:17;;;;;;;6.07;3.35;;;25.40;89.30;;;;;;5050975;28;20056;-72
2022/08/04 07:49:43;;;;;;;4.80;2.88;;;25.50;89.00;;;;;;5050746;28;20216;-72
2022/08/04 07:52:10;;;;;;;4.28;3.10;;;25.50;89.00;;;;;;5050802;28;20057;-72
2022/08/04 07:54:38;;;;;;;7.05;3.65;;;25.50;88.90;;;;;;5050825;28;20509;-71
2022/08/04 07:57:04;;;;;;;8.00;3.25;;;25.60;88.70;;;;;;5051224;28;20039;-72
2022/08/04 07:59:31;;;;;;;5.07;2.88;;;25.60;88.50;;;;;;5051108;28;20029;-71
2022/08/04 08:02:07;;;;;;;5.20;2.88;;;25.70;88.70;;;;;;5051361;28;20105;-71
2022/08/04 08:04:33;;;;;;;6.30;3.13;;;25.70;89.10;;;;;;5052514;28;20040;-70
2022/08/04 08:06:59;;;;;;;3.78;2.72;;;25.70;88.90;;;;;;5050105;28;20029;-70
2022/08/04 08:09:26;;;;;;;5.43;3.03;;;25.80;88.50;;;;;;5051131;28;20107;-70
2022/08/04 08:11:54;;;;;;;6.38;4.65;;;25.80;88.20;;;;;;5050959;28;20478;-70
2022/08/04 08:14:20;;;;;;;8.20;3.95;;;25.90;87.60;;;;;;5050908;28;20043;-70
2022/08/04 08:16:46;;;;;;;5.53;3.92;;;26.00;87.50;;;;;;5050856;28;20048;-70
2022/08/04 08:19:13;;;;;;;6.53;4.07;;;26.00;88.00;;;;;;5050796;28;20470;-71
2022/08/04 08:21:40;;;;;;;6.05;4.03;;;26.10;87.30;;;;;;5050780;28;20292;-70
2022/08/04 08:24:06;;;;;;;5.03;3.10;;;26.10;87.30;;;;;;5032851;28;20397;-71
2022/08/04 08:26:33;;;;;;;5.43;3.53;;;26.00;87.70;;;;;;5032993;28;20033;-70
2022/08/04 08:29:01;;;;;;;7.50;3.60;;;26.00;87.90;;;;;;5050529;28;20025;-70
2022/08/04 08:31:26;;;;;;;5.57;3.17;;;26.00;87.50;;;;;;5050809;28;20025;-71
2022/08/04 08:33:53;;;;;;;8.80;4.10;;;26.00;88.10;;;;;;5050856;28;20542;-70
2022/08/04 08:36:25;;;;;;;9.43;3.85;;;26.10;87.30;;;;;;5050625;28;20079;-70
2022/08/04 08:39:06;;;;;;;7.35;3.92;;;26.20;87.20;;;;;;5050990;28;20088;-70
2022/08/04 08:41:53;;;;;;;6.85;3.83;;;26.20;87.40;;;;;;5050779;28;20066;-70
2022/08/04 08:44:43;;;;;;;6.80;3.77;;;26.10;87.80;;;;;;5050694;28;20039;-70
2022/08/04 08:47:42;;;;;;;9.00;6.05;;;26.10;88.00;;;;;;5049371;28;20432;-71
2022/08/04 08:50:17;;;;;;;7.07;4.38;;;26.20;87.30;;;;;;5032385;28;20029;-72
2022/08/04 08:53:17;;;;;;;8.50;3.97;;;26.20;87.20;;;;;;5050607;28;20029;-72
2022/08/04 08:56:01;;;;;;;7.90;3.30;;;26.40;85.80;;;;;;5053754;28;20039;-70
2022/08/04 08:59:01;;;;;;;7.05;3.40;;;26.70;84.30;;;;;;5053884;28;20021;-72
2022/08/04 09:01:48;;;;;;;12.88;5.03;;;27.00;84.10;;;;;;5053885;28;20094;-72
2022/08/04 09:04:41;;;;;;;11.32;4.22;;;27.20;83.00;;;;;;5053831;28;20033;-72
2022/08/04 09:07:32;;;;;;;17.10;5.40;;;27.40;82.60;;;;;;5052430;28;20435;-72
2022/08/04 09:10:11;;;;;;;12.98;5.13;;;27.40;82.20;;;;;;5053533;28;20095;-72
2022/08/04 09:12:50;;;;;;;9.77;5.88;;;27.40;82.80;;;;;;5053780;28;20527;-72
2022/08/04 09:15:33;;;;;;;12.10;5.72;;;27.40;83.10;;;;;;5053443;28;20116;-71
2022/08/04 09:18:06;;;;;;;15.32;6.50;;;27.40;82.80;;;;;;5053448;28;20032;-71
2022/08/04 09:20:54;;;;;;;12.18;6.13;;;27.40;83.30;;;;;;5053485;28;20140;-71
2022/08/04 09:23:33;;;;;;;17.05;6.43;;;27.40;83.20;;;;;;5053504;28;20032;-71
2022/08/04 09:26:20;;;;;;;11.93;5.10;;;27.40;83.60;;;;;;5053248;28;20549;-71
2022/08/04 09:29:00;;;;;;;15.13;4.90;;;27.40;83.60;;;;;;5053333;28;20413;-71
2022/08/04 09:31:52;;;;;;;16.63;5.93;;;27.40;83.50;;;;;;5053408;28;20043;-71
2022/08/04 09:34:27;;;;;;;17.60;5.47;;;27.40;84.10;;;;;;5053025;28;20370;-71
2022/08/04 09:36:59;;;;;;;18.60;5.20;;;27.40;84.30;;;;;;5053038;28;20059;-71
2022/08/04 09:39:51;;;;;;;12.38;4.18;;;27.50;84.10;;;;;;5053087;28;20025;-71
2022/08/04 09:42:36;;;;;;;9.45;4.72;;;27.60;83.40;;;;;;5042323;28;20462;-71
2022/08/04 09:45:15;;;;;;;10.43;3.47;;;27.60;83.10;;;;;;5053233;28;20397;-71
2022/08/04 09:48:04;;;;;;;10.27;3.88;;;27.60;83.00;;;;;;5052872;28;20546;-71
2022/08/04 09:50:44;;;;;;;12.27;4.10;;;27.60;83.10;;;;;;5052750;28;20403;-71
2022/08/04 09:53:13;;;;;;;11.23;3.22;;;27.60;83.20;;;;;;5053161;28;20040;-71
2022/08/04 09:55:45;;;;;;;6.03;3.17;;;27.70;82.00;;;;;;5052537;28;20071;-71
2022/08/04 09:58:39;;;;;;;7.43;2.30;;;27.70;81.90;;;;;;5052734;28;20029;-71
2022/08/04 10:01:12;;;;;;;5.32;2.78;;;27.80;81.00;;;;;;5052682;28;20067;-71
2022/08/04 10:03:44;;;;;;;6.75;2.38;;;28.00;80.70;;;;;;5052478;28;20020;-71
2022/08/04 10:06:10;;;;;;;5.15;2.40;;;28.00;80.30;;;;;;5034733;28;20074;-71
2022/08/04 10:09:12;;;;;;;8.63;2.72;;;28.20;80.30;;;;;;5052533;28;20507;-71
2022/08/04 10:11:56;;;;;;;16.17;3.35;;;28.20;80.00;;;;;;5052527;28;20025;-71
2022/08/04 10:14:44;;;;;;;7.18;3.47;;;28.30;80.30;;;;;;5052418;28;20071;-71
2022/08/04 10:17:34;;;;;;;8.63;3.15;;;28.30;80.00;;;;;;5052419;28;20476;-71
2022/08/04 10:20:13;;;;;;;6.00;2.80;;;28.40;80.00;;;;;;5052372;28;20029;-71
2022/08/04 10:23:10;;;;;;;10.57;3.58;;;28.40;80.10;;;;;;5052387;28;20045;-71
2022/08/04 10:26:14;;;;;;;59.15;7.28;;;28.30;80.70;;;;;;5038786;28;20049;-71
2022/08/04 10:28:51;;;;;;;7.43;2.88;;;28.50;79.60;;;;;;5052038;28;20116;-72
2022/08/04 10:31:23;;;;;;;8.90;2.60;;;28.50;79.90;;;;;;5052140;28;20040;-72
2022/08/04 10:33:56;;;;;;;8.75;2.72;;;28.60;79.80;;;;;;5052207;28;20029;-72
2022/08/04 10:36:40;;;;;;;7.10;2.80;;;28.80;79.40;;;;;;5051885;28;20044;-72
2022/08/04 10:39:18;;;;;;;7.90;2.90;;;28.90;78.50;;;;;;5052210;28;20025;-72
2022/08/04 10:41:47;;;;;;;;;;;29.00;78.20;;;;;;5052771;28;20052;-72
2022/08/04 10:44:39;;;;;;;7.60;2.03;;;29.10;77.40;;;;;;5052148;28;20369;-70
2022/08/04 10:47:15;;;;;;;5.57;2.00;;;29.20;77.00;;;;;;5052043;28;20048;-72
2022/08/04 10:49:49;;;;;;;8.25;2.65;;;29.20;77.10;;;;;;5052021;28;20065;-70
2022/08/04 10:52:37;;;;;;;6.72;2.00;;;29.30;77.40;;;;;;5052154;28;20161;-72
2022/08/04 10:55:13;;;;;;;8.98;3.05;;;29.40;77.70;;;;;;5051666;28;20107;-72
2022/08/04 10:57:47;;;;;;;9.38;2.47;;;29.40;77.80;;;;;;5051878;28;20017;-71
2022/08/04 11:00:18;;;;;;;7.65;2.53;;;29.40;78.50;;;;;;5051331;28;20094;-72
2022/08/04 11:02:50;;;;;;;12.20;2.85;;;29.40;77.70;;;;;;5051652;28;20025;-71
2022/08/04 11:05:34;;;;;;;9.32;2.22;;;29.60;77.00;;;;;;5051647;28;20388;-71
2022/08/04 11:08:10;;;;;;;7.95;2.45;;;29.70;75.80;;;;;;5051400;28;20033;-71
2022/08/04 11:11:01;;;;;;;6.60;2.20;;;29.80;75.50;;;;;;5051404;28;20041;-71
2022/08/04 11:13:41;;;;;;;7.05;2.40;;;29.80;76.20;;;;;;5051994;28;20481;-71
2022/08/04 11:16:16;;;;;;;7.50;2.22;;;29.70;75.90;;;;;;5050694;28;20478;-71
2022/08/04 11:19:16;;;;;;;5.95;2.55;;;29.70;76.70;;;;;;5051317;28;20021;-70
2022/08/04 11:21:48;;;;;;;5.53;2.35;;;29.70;77.40;;;;;;5051600;28;20025;-71
2022/08/04 11:24:42;;;;;;;5.03;2.20;;;29.70;76.50;;;;;;5051451;28;20091;-71
2022/08/04 11:27:15;;;;;;;5.93;2.08;;;29.80;76.20;;;;;;5051142;28;20029;-71
2022/08/04 11:29:47;;;;;;;8.70;3.08;;;29.90;75.60;;;;;;5051352;28;20035;-70
2022/08/04 11:32:25;;;;;;;4.85;1.88;;;29.90;74.20;;;;;;5051287;28;20454;-70
2022/08/04 11:34:56;;;;;;;10.52;2.03;;;29.90;74.40;;;;;;5049823;28;20618;-71
2022/08/04 11:37:36;;;;;;;8.13;2.33;;;29.90;73.90;;;;;;5051113;28;20417;-71
2022/08/04 11:40:41;;;;;;;5.05;2.28;;;29.90;74.30;;;;;;5051006;28;20024;-70
2022/08/04 11:43:18;;;;;;;8.23;2.00;;;29.90;75.10;;;;;;5042541;28;20123;-70
2022/08/04 11:45:55;;;;;;;9.48;3.10;;;29.80;75.70;;;;;;5051364;28;20032;-70
2022/08/04 11:48:31;;;;;;;5.63;2.50;;;29.90;76.60;;;;;;5051336;28;20032;-72
2022/08/04 11:51:01;;;;;;;5.18;2.00;;;29.90;77.10;;;;;;5051435;28;20037;-72
2022/08/04 11:53:28;;;;;;;10.20;2.55;;;29.90;77.40;;;;;;5051205;28;20049;-70
2022/08/04 11:56:00;;;;;;;7.97;2.45;;;29.80;77.10;;;;;;5049989;28;20132;-70
2022/08/04 11:58:27;;;;;;;5.57;2.55;;;29.70;76.90;;;;;;5051569;28;20517;-70
2022/08/04 12:01:04;;;;;;;8.32;2.60;;;29.60;76.80;;;;;;5051194;28;20486;-70
2022/08/04 12:03:42;;;;;;;7.90;2.13;;;29.60;76.40;;;;;;5051547;28;20513;-71
2022/08/04 12:06:25;;;;;;;3.60;2.10;;;29.50;76.60;;;;;;5051763;28;20021;-73
2022/08/04 12:09:08;;;;;;;5.47;2.10;;;29.40;76.70;;;;;;5051502;28;20033;-70
2022/08/04 12:11:41;;;;;;;5.35;2.22;;;29.40;76.90;;;;;;5050217;28;20079;-72
2022/08/04 12:14:48;;;;;;;8.00;2.28;;;29.20;77.30;;;;;;5051285;28;20480;-70
2022/08/04 12:17:31;;;;;;;7.18;2.30;;;29.10;78.10;;;;;;5043206;28;20774;-70
2022/08/04 12:20:03;;;;;;;6.40;2.35;;;29.10;78.10;;;;;;5051114;28;20025;-70
2022/08/04 12:22:34;;;;;;;7.25;2.75;;;28.90;78.60;;;;;;5051174;28;20027;-71
2022/08/04 12:25:06;;;;;;;7.75;2.60;;;28.90;78.70;;;;;;5051361;28;20035;-70
2022/08/04 12:27:38;;;;;;;7.45;2.60;;;28.80;78.80;;;;;;5051410;28;20033;-70
2022/08/04 12:30:05;;;;;;;11.32;3.40;;;28.80;79.40;;;;;;5054968;28;20036;-70
2022/08/04 12:32:36;;;;;;;9.68;2.95;;;28.80;83.10;;;;;;5055265;28;20045;-71
2022/08/04 12:35:46;;;;;;;7.32;3.20;;;28.80;84.40;;;;;;5081431;22;20036;-78
2022/08/04 12:38:16;;;;;;;9.80;3.55;;;28.70;84.90;;;;;;5019140;28;20041;-78
2022/08/04 12:40:49;;;;;;;14.73;3.88;;;28.80;85.10;;;;;;5053896;28;20444;-78
2022/08/04 12:43:37;;;;;;;11.32;3.92;;;28.90;85.90;;;;;;5054180;28;20044;-78
2022/08/04 12:46:26;;;;;;;10.82;4.18;;;28.90;86.30;;;;;;5053827;28;20037;-78
2022/08/04 12:49:00;;;;;;;8.63;3.13;;;28.90;85.60;;;;;;5053999;28;20029;-77
2022/08/04 12:51:27;;;;;;;12.63;3.88;;;28.90;86.40;;;;;;5054079;28;20040;-78
2022/08/04 12:53:54;;;;;;;9.73;4.07;;;28.90;86.10;;;;;;5053886;28;20381;-78
2022/08/04 12:56:27;;;;;;;8.98;3.88;;;28.80;86.30;;;;;;5053607;28;20140;-78
2022/08/04 12:58:59;;;;;;;9.45;3.70;;;28.80;85.40;;;;;;5053741;28;20025;-78
2022/08/04 13:01:26;;;;;;;9.27;3.28;;;28.80;85.30;;;;;;5053765;28;20477;-78
2022/08/04 13:04:25;;;;;;;12.68;4.00;;;28.70;85.00;;;;;;5053752;28;20067;-77
2022/08/04 13:07:07;;;;;;;12.68;3.22;;;28.60;84.70;;;;;;5050665;28;20048;-78
2022/08/04 13:09:33;;;;;;;5.32;2.67;;;28.60;85.00;;;;;;5053424;28;20029;-78
2022/08/04 13:12:12;;;;;;;7.00;2.75;;;28.60;85.40;;;;;;5053556;28;20409;-78
2022/08/04 13:14:43;;;;;;;11.50;2.72;;;28.60;85.60;;;;;;5053413;28;20037;-78
2022/08/04 13:17:09;;;;;;;11.82;3.13;;;28.60;84.30;;;;;;5053196;28;20056;-77
2022/08/04 13:19:36;;;;;;;7.60;3.00;;;28.60;83.80;;;;;;5053296;28;20481;-78
2022/08/04 13:22:03;;;;;;;12.32;3.40;;;28.60;83.80;;;;;;5053194;28;20029;-78
2022/08/04 13:24:31;;;;;;;10.77;3.67;;;28.60;83.20;;;;;;5053220;28;20108;-78
2022/08/04 13:27:08;;;;;;;6.33;2.77;;;28.60;82.30;;;;;;5053046;28;20071;-78
2022/08/04 13:29:43;;;;;;;8.50;2.92;;;28.60;82.60;;;;;;5052811;28;20048;-78
2022/08/04 13:32:09;;;;;;;6.78;2.70;;;28.60;82.00;;;;;;5053056;28;20035;-78
2022/08/04 13:34:39;;;;;;;10.63;3.70;;;28.60;83.00;;;;;;5053018;28;20036;-78
2022/08/04 13:37:06;;;;;;;7.97;2.85;;;28.60;82.90;;;;;;5052670;28;20073;-78
2022/08/04 13:39:33;;;;;;;6.93;2.63;;;28.60;82.70;;;;;;5051723;28;20108;-78
2022/08/04 13:42:03;;;;;;;5.32;2.10;;;28.60;81.50;;;;;;5052764;28;20033;-78